sensor_id;sensor_type;location;lat;lon;timestamp;P1;durP1;ratioP1;P2;durP2;ratioP2
11618;SDS011;5865;48.776;9.280;2022-09-30T00:01:05;9.90;;;6.97;;
11618;SDS011;5865;48.776;9.280;2022-09-30T00:03:33;8.73;;;6.63;;
11618;SDS011;5865;48.776;9.280;2022-09-30T00:06:02;12.83;;;7.03;;
11618;SDS011;5865;48.776;9.280;2022-09-30T00:08:30;9.13;;;6.93;;
11618;SDS011;5865;48.776;9.280;2022-09-30T00:10:58;12.37;;;7.60;;
11618;SDS011;5865;48.776;9.280;2022-09-30T00:13:28;10.13;;;7.13;;
11618;SDS011;5865;48.776;9.280;2022-09-30T00:15:58;8.67;;;7.07;;
11618;SDS011;5865;48.776;9.280;2022-09-30T00:18:27;8.73;;;7.00;;
11618;SDS011;5865;48.776;9.280;2022-09-30T00:20:55;9.03;;;6.67;;
11618;SDS011;5865;48.776;9.280;2022-09-30T00:23:26;10.37;;;6.97;;
11618;SDS011;5865;48.776;9.280;2022-09-30T00:25:56;10.13;;;7.13;;
11618;SDS011;5865;48.776;9.280;2022-09-30T00:28:25;9.67;;;7.10;;
11618;SDS011;5865;48.776;9.280;2022-09-30T00:30:53;7.70;;;6.60;;
11618;SDS011;5865;48.776;9.280;2022-09-30T00:33:33;12.37;;;7.00;;
11618;SDS011;5865;48.776;9.280;2022-09-30T00:36:01;11.83;;;6.73;;
11618;SDS011;5865;48.776;9.280;2022-09-30T00:38:28;9.47;;;7.37;;
11618;SDS011;5865;48.776;9.280;2022-09-30T00:40:56;12.73;;;7.20;;
11618;SDS011;5865;48.776;9.280;2022-09-30T00:43:39;9.77;;;6.70;;
11618;SDS011;5865;48.776;9.280;2022-09-30T00:46:11;9.83;;;7.00;;
11618;SDS011;5865;48.776;9.280;2022-09-30T00:48:48;7.53;;;6.63;;
11618;SDS011;5865;48.776;9.280;2022-09-30T00:51:19;9.93;;;6.70;;
11618;SDS011;5865;48.776;9.280;2022-09-30T00:53:54;8.73;;;6.53;;
11618;SDS011;5865;48.776;9.280;2022-09-30T00:56:26;11.07;;;7.13;;
11618;SDS011;5865;48.776;9.280;2022-09-30T00:58:59;7.57;;;5.87;;
11618;SDS011;5865;48.776;9.280;2022-09-30T01:01:30;9.50;;;6.53;;
11618;SDS011;5865;48.776;9.280;2022-09-30T01:04:03;8.33;;;5.77;;
11618;SDS011;5865;48.776;9.280;2022-09-30T01:06:36;9.13;;;6.57;;
11618;SDS011;5865;48.776;9.280;2022-09-30T01:09:03;10.17;;;6.30;;
11618;SDS011;5865;48.776;9.280;2022-09-30T01:11:31;8.20;;;6.30;;
11618;SDS011;5865;48.776;9.280;2022-09-30T01:14:00;8.50;;;6.20;;
11618;SDS011;5865;48.776;9.280;2022-09-30T01:16:37;9.27;;;6.03;;
11618;SDS011;5865;48.776;9.280;2022-09-30T01:19:20;6.70;;;5.77;;
11618;SDS011;5865;48.776;9.280;2022-09-30T01:21:57;7.13;;;5.87;;
11618;SDS011;5865;48.776;9.280;2022-09-30T01:24:39;8.33;;;6.20;;
11618;SDS011;5865;48.776;9.280;2022-09-30T01:27:30;9.67;;;6.33;;
11618;SDS011;5865;48.776;9.280;2022-09-30T01:30:10;10.20;;;6.20;;
11618;SDS011;5865;48.776;9.280;2022-09-30T01:32:51;8.77;;;5.50;;
11618;SDS011;5865;48.776;9.280;2022-09-30T01:35:41;7.27;;;6.00;;
11618;SDS011;5865;48.776;9.280;2022-09-30T01:38:25;8.87;;;5.97;;
11618;SDS011;5865;48.776;9.280;2022-09-30T01:40:57;6.43;;;5.73;;
11618;SDS011;5865;48.776;9.280;2022-09-30T01:43:29;9.93;;;6.40;;
11618;SDS011;5865;48.776;9.280;2022-09-30T01:46:12;8.57;;;5.67;;
11618;SDS011;5865;48.776;9.280;2022-09-30T01:48:52;9.50;;;5.90;;
11618;SDS011;5865;48.776;9.280;2022-09-30T01:51:27;8.77;;;6.23;;
11618;SDS011;5865;48.776;9.280;2022-09-30T01:53:58;7.00;;;5.90;;
11618;SDS011;5865;48.776;9.280;2022-09-30T01:56:28;8.50;;;6.00;;
11618;SDS011;5865;48.776;9.280;2022-09-30T01:59:02;8.17;;;6.10;;
11618;SDS011;5865;48.776;9.280;2022-09-30T02:01:34;9.23;;;6.30;;
11618;SDS011;5865;48.776;9.280;2022-09-30T02:04:06;8.07;;;6.23;;
11618;SDS011;5865;48.776;9.280;2022-09-30T02:06:37;9.00;;;7.20;;
11618;SDS011;5865;48.776;9.280;2022-09-30T02:09:09;8.33;;;6.33;;
11618;SDS011;5865;48.776;9.280;2022-09-30T02:11:44;7.67;;;6.70;;
11618;SDS011;5865;48.776;9.280;2022-09-30T02:14:12;8.87;;;6.77;;
11618;SDS011;5865;48.776;9.280;2022-09-30T02:16:45;11.43;;;6.90;;
11618;SDS011;5865;48.776;9.280;2022-09-30T02:19:18;8.50;;;6.47;;
11618;SDS011;5865;48.776;9.280;2022-09-30T02:21:51;10.17;;;6.40;;
11618;SDS011;5865;48.776;9.280;2022-09-30T02:24:24;9.17;;;6.33;;
11618;SDS011;5865;48.776;9.280;2022-09-30T02:27:01;8.53;;;6.60;;
11618;SDS011;5865;48.776;9.280;2022-09-30T02:29:31;9.53;;;7.13;;
11618;SDS011;5865;48.776;9.280;2022-09-30T02:32:04;8.50;;;6.37;;
11618;SDS011;5865;48.776;9.280;2022-09-30T02:34:35;9.67;;;7.40;;
11618;SDS011;5865;48.776;9.280;2022-09-30T02:37:06;8.87;;;6.80;;
11618;SDS011;5865;48.776;9.280;2022-09-30T02:39:39;10.23;;;6.83;;
11618;SDS011;5865;48.776;9.280;2022-09-30T02:42:10;7.93;;;6.57;;
11618;SDS011;5865;48.776;9.280;2022-09-30T02:44:40;9.87;;;6.10;;
11618;SDS011;5865;48.776;9.280;2022-09-30T02:47:24;8.83;;;6.63;;
11618;SDS011;5865;48.776;9.280;2022-09-30T02:49:57;9.70;;;6.43;;
11618;SDS011;5865;48.776;9.280;2022-09-30T02:52:28;8.07;;;6.20;;
11618;SDS011;5865;48.776;9.280;2022-09-30T02:55:12;9.97;;;6.83;;
11618;SDS011;5865;48.776;9.280;2022-09-30T02:57:47;7.20;;;6.37;;
11618;SDS011;5865;48.776;9.280;2022-09-30T03:00:23;9.87;;;7.07;;
11618;SDS011;5865;48.776;9.280;2022-09-30T03:02:51;8.30;;;6.80;;
11618;SDS011;5865;48.776;9.280;2022-09-30T03:05:25;11.77;;;7.87;;
11618;SDS011;5865;48.776;9.280;2022-09-30T03:07:54;12.43;;;7.57;;
11618;SDS011;5865;48.776;9.280;2022-09-30T03:10:21;10.40;;;8.07;;
11618;SDS011;5865;48.776;9.280;2022-09-30T03:12:52;10.60;;;7.80;;
11618;SDS011;5865;48.776;9.280;2022-09-30T03:15:41;9.83;;;8.37;;
11618;SDS011;5865;48.776;9.280;2022-09-30T03:18:24;10.93;;;8.20;;
11618;SDS011;5865;48.776;9.280;2022-09-30T03:21:05;12.23;;;8.57;;
11618;SDS011;5865;48.776;9.280;2022-09-30T03:23:55;9.73;;;8.30;;
11618;SDS011;5865;48.776;9.280;2022-09-30T03:26:35;10.23;;;8.13;;
11618;SDS011;5865;48.776;9.280;2022-09-30T03:29:08;10.33;;;8.53;;
11618;SDS011;5865;48.776;9.280;2022-09-30T03:31:47;13.03;;;9.37;;
11618;SDS011;5865;48.776;9.280;2022-09-30T03:34:23;11.43;;;9.23;;
11618;SDS011;5865;48.776;9.280;2022-09-30T03:37:08;8.73;;;7.33;;
11618;SDS011;5865;48.776;9.280;2022-09-30T03:39:46;11.00;;;8.10;;
11618;SDS011;5865;48.776;9.280;2022-09-30T03:42:21;9.40;;;7.87;;
11618;SDS011;5865;48.776;9.280;2022-09-30T03:44:55;10.20;;;8.10;;
11618;SDS011;5865;48.776;9.280;2022-09-30T03:47:29;9.50;;;7.63;;
11618;SDS011;5865;48.776;9.280;2022-09-30T03:50:03;10.77;;;7.57;;
11618;SDS011;5865;48.776;9.280;2022-09-30T03:52:35;11.47;;;8.03;;
11618;SDS011;5865;48.776;9.280;2022-09-30T03:55:04;9.57;;;8.07;;
11618;SDS011;5865;48.776;9.280;2022-09-30T03:57:35;10.63;;;8.57;;
11618;SDS011;5865;48.776;9.280;2022-09-30T04:00:04;11.07;;;8.63;;
11618;SDS011;5865;48.776;9.280;2022-09-30T04:02:32;11.50;;;8.27;;
11618;SDS011;5865;48.776;9.280;2022-09-30T04:05:00;14.10;;;10.03;;
11618;SDS011;5865;48.776;9.280;2022-09-30T04:07:28;11.77;;;9.00;;
11618;SDS011;5865;48.776;9.280;2022-09-30T04:09:58;12.20;;;8.87;;
11618;SDS011;5865;48.776;9.280;2022-09-30T04:12:26;10.37;;;8.10;;
11618;SDS011;5865;48.776;9.280;2022-09-30T04:14:56;12.90;;;8.33;;
11618;SDS011;5865;48.776;9.280;2022-09-30T04:17:23;10.63;;;8.37;;
11618;SDS011;5865;48.776;9.280;2022-09-30T04:19:52;9.80;;;8.30;;
11618;SDS011;5865;48.776;9.280;2022-09-30T04:22:20;12.87;;;8.30;;
11618;SDS011;5865;48.776;9.280;2022-09-30T04:24:48;11.20;;;8.60;;
11618;SDS011;5865;48.776;9.280;2022-09-30T04:27:19;10.30;;;9.00;;
11618;SDS011;5865;48.776;9.280;2022-09-30T04:29:47;11.13;;;8.17;;
11618;SDS011;5865;48.776;9.280;2022-09-30T04:32:14;10.93;;;8.37;;
11618;SDS011;5865;48.776;9.280;2022-09-30T04:34:42;11.10;;;8.93;;
11618;SDS011;5865;48.776;9.280;2022-09-30T04:37:10;13.90;;;9.23;;
11618;SDS011;5865;48.776;9.280;2022-09-30T04:39:38;11.20;;;8.67;;
11618;SDS011;5865;48.776;9.280;2022-09-30T04:42:06;10.57;;;8.37;;
11618;SDS011;5865;48.776;9.280;2022-09-30T04:44:36;12.63;;;8.77;;
11618;SDS011;5865;48.776;9.280;2022-09-30T04:47:03;10.40;;;8.23;;
11618;SDS011;5865;48.776;9.280;2022-09-30T04:49:34;13.83;;;9.13;;
11618;SDS011;5865;48.776;9.280;2022-09-30T04:52:03;10.70;;;9.47;;
11618;SDS011;5865;48.776;9.280;2022-09-30T04:54:30;12.47;;;9.60;;
11618;SDS011;5865;48.776;9.280;2022-09-30T04:56:57;13.57;;;9.63;;
11618;SDS011;5865;48.776;9.280;2022-09-30T04:59:26;14.97;;;9.47;;
11618;SDS011;5865;48.776;9.280;2022-09-30T05:01:58;12.00;;;8.70;;
11618;SDS011;5865;48.776;9.280;2022-09-30T05:04:26;10.10;;;8.53;;
11618;SDS011;5865;48.776;9.280;2022-09-30T05:07:01;11.57;;;9.03;;
11618;SDS011;5865;48.776;9.280;2022-09-30T05:09:32;12.23;;;8.70;;
11618;SDS011;5865;48.776;9.280;2022-09-30T05:12:01;12.07;;;9.30;;
11618;SDS011;5865;48.776;9.280;2022-09-30T05:14:30;15.13;;;9.10;;
11618;SDS011;5865;48.776;9.280;2022-09-30T05:17:00;12.73;;;9.20;;
11618;SDS011;5865;48.776;9.280;2022-09-30T05:19:28;13.63;;;9.33;;
11618;SDS011;5865;48.776;9.280;2022-09-30T05:21:55;11.87;;;9.10;;
11618;SDS011;5865;48.776;9.280;2022-09-30T05:24:22;16.50;;;10.77;;
11618;SDS011;5865;48.776;9.280;2022-09-30T05:26:49;14.70;;;10.17;;
11618;SDS011;5865;48.776;9.280;2022-09-30T05:29:16;16.73;;;10.70;;
11618;SDS011;5865;48.776;9.280;2022-09-30T05:31:43;16.67;;;11.17;;
11618;SDS011;5865;48.776;9.280;2022-09-30T05:34:12;15.73;;;11.60;;
11618;SDS011;5865;48.776;9.280;2022-09-30T05:36:41;19.40;;;13.70;;
11618;SDS011;5865;48.776;9.280;2022-09-30T05:39:08;18.63;;;11.80;;
11618;SDS011;5865;48.776;9.280;2022-09-30T05:41:36;15.57;;;11.37;;
11618;SDS011;5865;48.776;9.280;2022-09-30T05:44:03;16.07;;;11.63;;
11618;SDS011;5865;48.776;9.280;2022-09-30T05:46:33;15.63;;;11.80;;
11618;SDS011;5865;48.776;9.280;2022-09-30T05:49:03;18.53;;;12.17;;
11618;SDS011;5865;48.776;9.280;2022-09-30T05:51:31;23.03;;;13.57;;
11618;SDS011;5865;48.776;9.280;2022-09-30T05:53:58;19.17;;;13.03;;
11618;SDS011;5865;48.776;9.280;2022-09-30T05:56:26;17.27;;;12.60;;
11618;SDS011;5865;48.776;9.280;2022-09-30T05:58:54;19.20;;;12.70;;
11618;SDS011;5865;48.776;9.280;2022-09-30T06:01:21;18.70;;;14.00;;
11618;SDS011;5865;48.776;9.280;2022-09-30T06:03:48;17.60;;;13.37;;
11618;SDS011;5865;48.776;9.280;2022-09-30T06:06:15;22.87;;;13.80;;
11618;SDS011;5865;48.776;9.280;2022-09-30T06:08:46;14.63;;;11.90;;
11618;SDS011;5865;48.776;9.280;2022-09-30T06:11:14;15.00;;;11.57;;
11618;SDS011;5865;48.776;9.280;2022-09-30T06:13:43;13.83;;;11.00;;
11618;SDS011;5865;48.776;9.280;2022-09-30T06:16:11;14.63;;;11.30;;
11618;SDS011;5865;48.776;9.280;2022-09-30T06:18:39;30.03;;;12.07;;
11618;SDS011;5865;48.776;9.280;2022-09-30T06:21:07;13.63;;;11.83;;
11618;SDS011;5865;48.776;9.280;2022-09-30T06:23:35;12.97;;;11.07;;
11618;SDS011;5865;48.776;9.280;2022-09-30T06:26:05;11.40;;;9.87;;
11618;SDS011;5865;48.776;9.280;2022-09-30T06:28:33;10.47;;;9.37;;
11618;SDS011;5865;48.776;9.280;2022-09-30T06:31:00;10.80;;;9.70;;
11618;SDS011;5865;48.776;9.280;2022-09-30T06:33:28;10.43;;;9.33;;
11618;SDS011;5865;48.776;9.280;2022-09-30T06:35:56;11.27;;;9.63;;
11618;SDS011;5865;48.776;9.280;2022-09-30T06:38:23;11.60;;;9.80;;
11618;SDS011;5865;48.776;9.280;2022-09-30T06:40:51;11.07;;;9.43;;
11618;SDS011;5865;48.776;9.280;2022-09-30T06:43:21;15.17;;;10.37;;
11618;SDS011;5865;48.776;9.280;2022-09-30T06:45:48;13.37;;;10.17;;
11618;SDS011;5865;48.776;9.280;2022-09-30T06:48:16;11.73;;;9.93;;
11618;SDS011;5865;48.776;9.280;2022-09-30T06:50:44;13.03;;;11.20;;
11618;SDS011;5865;48.776;9.280;2022-09-30T06:53:11;13.43;;;10.40;;
11618;SDS011;5865;48.776;9.280;2022-09-30T06:55:38;14.43;;;10.43;;
11618;SDS011;5865;48.776;9.280;2022-09-30T06:58:06;13.10;;;10.17;;
11618;SDS011;5865;48.776;9.280;2022-09-30T07:00:36;12.13;;;9.97;;
11618;SDS011;5865;48.776;9.280;2022-09-30T07:03:03;14.50;;;10.90;;
11618;SDS011;5865;48.776;9.280;2022-09-30T07:05:34;12.57;;;10.23;;
11618;SDS011;5865;48.776;9.280;2022-09-30T07:08:01;10.57;;;9.23;;
11618;SDS011;5865;48.776;9.280;2022-09-30T07:10:28;10.50;;;8.87;;
11618;SDS011;5865;48.776;9.280;2022-09-30T07:12:55;10.97;;;9.43;;
11618;SDS011;5865;48.776;9.280;2022-09-30T07:15:26;12.20;;;9.40;;
11618;SDS011;5865;48.776;9.280;2022-09-30T07:17:55;10.10;;;8.87;;
11618;SDS011;5865;48.776;9.280;2022-09-30T07:20:22;8.50;;;7.63;;
11618;SDS011;5865;48.776;9.280;2022-09-30T07:22:54;9.40;;;8.30;;
11618;SDS011;5865;48.776;9.280;2022-09-30T07:25:23;10.03;;;9.03;;
11618;SDS011;5865;48.776;9.280;2022-09-30T07:27:50;11.97;;;10.13;;
11618;SDS011;5865;48.776;9.280;2022-09-30T07:30:19;9.80;;;8.40;;
11618;SDS011;5865;48.776;9.280;2022-09-30T07:32:46;11.50;;;8.67;;
11618;SDS011;5865;48.776;9.280;2022-09-30T07:35:16;9.10;;;8.17;;
11618;SDS011;5865;48.776;9.280;2022-09-30T07:37:44;11.67;;;9.70;;
11618;SDS011;5865;48.776;9.280;2022-09-30T07:40:11;11.10;;;9.70;;
11618;SDS011;5865;48.776;9.280;2022-09-30T07:42:39;15.70;;;11.60;;
11618;SDS011;5865;48.776;9.280;2022-09-30T07:45:09;14.30;;;10.93;;
11618;SDS011;5865;48.776;9.280;2022-09-30T07:47:43;14.23;;;11.23;;
11618;SDS011;5865;48.776;9.280;2022-09-30T07:50:10;14.33;;;11.07;;
11618;SDS011;5865;48.776;9.280;2022-09-30T07:52:41;15.00;;;11.40;;
11618;SDS011;5865;48.776;9.280;2022-09-30T07:55:08;14.67;;;11.73;;
11618;SDS011;5865;48.776;9.280;2022-09-30T07:57:35;14.17;;;11.60;;
11618;SDS011;5865;48.776;9.280;2022-09-30T08:00:03;13.33;;;11.00;;
11618;SDS011;5865;48.776;9.280;2022-09-30T08:02:36;13.47;;;11.07;;
11618;SDS011;5865;48.776;9.280;2022-09-30T08:05:04;12.73;;;10.20;;
11618;SDS011;5865;48.776;9.280;2022-09-30T08:07:31;13.13;;;9.50;;
11618;SDS011;5865;48.776;9.280;2022-09-30T08:10:00;11.33;;;9.63;;
11618;SDS011;5865;48.776;9.280;2022-09-30T08:12:27;10.13;;;8.60;;
11618;SDS011;5865;48.776;9.280;2022-09-30T08:14:54;9.60;;;8.53;;
11618;SDS011;5865;48.776;9.280;2022-09-30T08:17:21;10.97;;;9.00;;
11618;SDS011;5865;48.776;9.280;2022-09-30T08:19:48;10.60;;;8.87;;
11618;SDS011;5865;48.776;9.280;2022-09-30T08:22:15;11.70;;;9.27;;
11618;SDS011;5865;48.776;9.280;2022-09-30T08:24:41;11.30;;;9.43;;
11618;SDS011;5865;48.776;9.280;2022-09-30T08:27:12;13.17;;;9.53;;
11618;SDS011;5865;48.776;9.280;2022-09-30T08:29:40;13.00;;;9.27;;
11618;SDS011;5865;48.776;9.280;2022-09-30T08:32:07;9.93;;;8.77;;
11618;SDS011;5865;48.776;9.280;2022-09-30T08:34:34;12.73;;;9.93;;
11618;SDS011;5865;48.776;9.280;2022-09-30T08:37:01;10.57;;;8.50;;
11618;SDS011;5865;48.776;9.280;2022-09-30T08:39:28;11.77;;;8.53;;
11618;SDS011;5865;48.776;9.280;2022-09-30T08:42:03;11.00;;;9.27;;
11618;SDS011;5865;48.776;9.280;2022-09-30T08:44:43;11.53;;;9.50;;
11618;SDS011;5865;48.776;9.280;2022-09-30T08:47:18;10.60;;;8.67;;
11618;SDS011;5865;48.776;9.280;2022-09-30T08:50:00;12.57;;;8.77;;
11618;SDS011;5865;48.776;9.280;2022-09-30T08:52:36;9.30;;;8.30;;
11618;SDS011;5865;48.776;9.280;2022-09-30T08:55:07;10.93;;;9.50;;
11618;SDS011;5865;48.776;9.280;2022-09-30T08:57:42;10.93;;;9.20;;
11618;SDS011;5865;48.776;9.280;2022-09-30T09:00:12;12.43;;;9.00;;
11618;SDS011;5865;48.776;9.280;2022-09-30T09:02:42;11.27;;;8.73;;
11618;SDS011;5865;48.776;9.280;2022-09-30T09:05:15;13.03;;;9.53;;
11618;SDS011;5865;48.776;9.280;2022-09-30T09:07:50;10.93;;;9.10;;
11618;SDS011;5865;48.776;9.280;2022-09-30T09:10:25;9.60;;;8.60;;
11618;SDS011;5865;48.776;9.280;2022-09-30T09:13:01;9.87;;;8.20;;
11618;SDS011;5865;48.776;9.280;2022-09-30T09:15:40;8.63;;;7.73;;
11618;SDS011;5865;48.776;9.280;2022-09-30T09:18:38;9.70;;;7.40;;
11618;SDS011;5865;48.776;9.280;2022-09-30T09:21:20;8.67;;;6.63;;
11618;SDS011;5865;48.776;9.280;2022-09-30T09:23:50;8.60;;;7.70;;
11618;SDS011;5865;48.776;9.280;2022-09-30T09:26:21;11.00;;;7.47;;
11618;SDS011;5865;48.776;9.280;2022-09-30T09:28:54;10.13;;;8.10;;
11618;SDS011;5865;48.776;9.280;2022-09-30T09:31:34;9.77;;;8.23;;
11618;SDS011;5865;48.776;9.280;2022-09-30T09:34:06;9.60;;;7.80;;
11618;SDS011;5865;48.776;9.280;2022-09-30T09:36:38;8.70;;;7.03;;
11618;SDS011;5865;48.776;9.280;2022-09-30T09:39:19;8.50;;;7.60;;
11618;SDS011;5865;48.776;9.280;2022-09-30T09:42:02;8.13;;;7.20;;
11618;SDS011;5865;48.776;9.280;2022-09-30T09:44:37;7.03;;;6.33;;
11618;SDS011;5865;48.776;9.280;2022-09-30T09:47:13;7.93;;;7.10;;
11618;SDS011;5865;48.776;9.280;2022-09-30T09:49:41;10.70;;;7.80;;
11618;SDS011;5865;48.776;9.280;2022-09-30T09:55:26;10.90;;;8.17;;
11618;SDS011;5865;48.776;9.280;2022-09-30T09:58:06;8.70;;;7.67;;
11618;SDS011;5865;48.776;9.280;2022-09-30T10:00:35;9.97;;;7.70;;
11618;SDS011;5865;48.776;9.280;2022-09-30T10:03:23;10.20;;;7.87;;
11618;SDS011;5865;48.776;9.280;2022-09-30T10:05:59;9.57;;;8.43;;
11618;SDS011;5865;48.776;9.280;2022-09-30T10:08:29;9.88;;;7.43;;
11618;SDS011;5865;48.776;9.280;2022-09-30T10:10:58;10.68;;;7.70;;
11618;SDS011;5865;48.776;9.280;2022-09-30T10:13:28;9.67;;;7.67;;
11618;SDS011;5865;48.776;9.280;2022-09-30T10:15:58;11.48;;;7.95;;
11618;SDS011;5865;48.776;9.280;2022-09-30T10:18:28;10.02;;;7.82;;
11618;SDS011;5865;48.776;9.280;2022-09-30T10:20:58;8.23;;;6.63;;
11618;SDS011;5865;48.776;9.280;2022-09-30T10:23:28;12.13;;;7.63;;
11618;SDS011;5865;48.776;9.280;2022-09-30T10:26:02;10.80;;;7.50;;
11618;SDS011;5865;48.776;9.280;2022-09-30T10:28:31;10.47;;;7.33;;
11618;SDS011;5865;48.776;9.280;2022-09-30T10:31:04;10.27;;;6.88;;
11618;SDS011;5865;48.776;9.280;2022-09-30T10:33:35;7.35;;;6.45;;
11618;SDS011;5865;48.776;9.280;2022-09-30T10:36:15;10.20;;;7.90;;
11618;SDS011;5865;48.776;9.280;2022-09-30T10:38:45;10.82;;;7.82;;
11618;SDS011;5865;48.776;9.280;2022-09-30T10:41:20;12.85;;;7.72;;
11618;SDS011;5865;48.776;9.280;2022-09-30T10:43:50;7.65;;;6.68;;
11618;SDS011;5865;48.776;9.280;2022-09-30T10:46:22;9.20;;;7.20;;
11618;SDS011;5865;48.776;9.280;2022-09-30T10:48:53;13.18;;;7.15;;
11618;SDS011;5865;48.776;9.280;2022-09-30T10:51:25;7.35;;;6.25;;
11618;SDS011;5865;48.776;9.280;2022-09-30T10:53:54;8.80;;;6.63;;
11618;SDS011;5865;48.776;9.280;2022-09-30T10:56:36;8.73;;;6.47;;
11618;SDS011;5865;48.776;9.280;2022-09-30T10:59:09;7.97;;;5.82;;
11618;SDS011;5865;48.776;9.280;2022-09-30T11:01:53;6.70;;;6.00;;
11618;SDS011;5865;48.776;9.280;2022-09-30T11:04:27;5.68;;;5.07;;
11618;SDS011;5865;48.776;9.280;2022-09-30T11:07:00;7.78;;;5.85;;
11618;SDS011;5865;48.776;9.280;2022-09-30T11:09:41;6.75;;;5.82;;
11618;SDS011;5865;48.776;9.280;2022-09-30T11:12:13;7.47;;;5.20;;
11618;SDS011;5865;48.776;9.280;2022-09-30T11:14:46;7.72;;;5.95;;
11618;SDS011;5865;48.776;9.280;2022-09-30T11:17:24;7.00;;;5.63;;
11618;SDS011;5865;48.776;9.280;2022-09-30T11:19:58;6.95;;;5.20;;
11618;SDS011;5865;48.776;9.280;2022-09-30T11:22:38;8.65;;;5.30;;
11618;SDS011;5865;48.776;9.280;2022-09-30T11:25:13;5.97;;;5.13;;
11618;SDS011;5865;48.776;9.280;2022-09-30T11:27:42;5.63;;;4.40;;
11618;SDS011;5865;48.776;9.280;2022-09-30T11:30:24;7.63;;;4.75;;
11618;SDS011;5865;48.776;9.280;2022-09-30T11:35:55;4.82;;;3.70;;
11618;SDS011;5865;48.776;9.280;2022-09-30T11:41:26;3.85;;;2.88;;
11618;SDS011;5865;48.776;9.280;2022-09-30T11:43:57;4.70;;;2.60;;
11618;SDS011;5865;48.776;9.280;2022-09-30T11:46:43;3.60;;;2.97;;
11618;SDS011;5865;48.776;9.280;2022-09-30T11:52:17;2.88;;;2.55;;
11618;SDS011;5865;48.776;9.280;2022-09-30T11:57:51;2.80;;;2.10;;
11618;SDS011;5865;48.776;9.280;2022-09-30T12:00:23;3.75;;;2.03;;
11618;SDS011;5865;48.776;9.280;2022-09-30T12:02:52;3.45;;;2.08;;
11618;SDS011;5865;48.776;9.280;2022-09-30T12:05:23;3.17;;;2.03;;
11618;SDS011;5865;48.776;9.280;2022-09-30T12:07:59;2.65;;;1.80;;
11618;SDS011;5865;48.776;9.280;2022-09-30T12:10:30;2.42;;;1.83;;
11618;SDS011;5865;48.776;9.280;2022-09-30T12:13:00;4.63;;;1.95;;
11618;SDS011;5865;48.776;9.280;2022-09-30T12:15:30;2.67;;;1.98;;
11618;SDS011;5865;48.776;9.280;2022-09-30T12:17:59;2.67;;;1.80;;
11618;SDS011;5865;48.776;9.280;2022-09-30T12:20:29;3.90;;;1.83;;
11618;SDS011;5865;48.776;9.280;2022-09-30T12:23:04;1.70;;;1.60;;
11618;SDS011;5865;48.776;9.280;2022-09-30T12:25:39;3.35;;;1.65;;
11618;SDS011;5865;48.776;9.280;2022-09-30T12:28:13;2.30;;;1.60;;
11618;SDS011;5865;48.776;9.280;2022-09-30T12:31:07;3.35;;;1.80;;
11618;SDS011;5865;48.776;9.280;2022-09-30T12:33:51;2.25;;;1.80;;
11618;SDS011;5865;48.776;9.280;2022-09-30T12:36:42;3.88;;;1.92;;
11618;SDS011;5865;48.776;9.280;2022-09-30T12:39:28;3.33;;;1.77;;
11618;SDS011;5865;48.776;9.280;2022-09-30T12:42:24;2.00;;;1.67;;
11618;SDS011;5865;48.776;9.280;2022-09-30T12:45:15;2.80;;;1.60;;
11618;SDS011;5865;48.776;9.280;2022-09-30T12:47:55;1.33;;;1.20;;
11618;SDS011;5865;48.776;9.280;2022-09-30T12:50:25;1.75;;;1.35;;
11618;SDS011;5865;48.776;9.280;2022-09-30T12:52:54;3.25;;;1.55;;
11618;SDS011;5865;48.776;9.280;2022-09-30T12:55:26;2.65;;;1.50;;
11618;SDS011;5865;48.776;9.280;2022-09-30T12:57:56;3.65;;;1.85;;
11618;SDS011;5865;48.776;9.280;2022-09-30T13:00:26;2.08;;;1.30;;
11618;SDS011;5865;48.776;9.280;2022-09-30T13:02:56;2.20;;;1.30;;
11618;SDS011;5865;48.776;9.280;2022-09-30T13:05:43;3.05;;;1.48;;
11618;SDS011;5865;48.776;9.280;2022-09-30T13:08:21;1.95;;;1.40;;
11618;SDS011;5865;48.776;9.280;2022-09-30T13:10:55;1.75;;;1.30;;
11618;SDS011;5865;48.776;9.280;2022-09-30T13:13:24;2.47;;;1.30;;
11618;SDS011;5865;48.776;9.280;2022-09-30T13:15:54;2.28;;;1.30;;
11618;SDS011;5865;48.776;9.280;2022-09-30T13:21:25;1.52;;;1.20;;
11618;SDS011;5865;48.776;9.280;2022-09-30T13:23:53;2.85;;;1.30;;
11618;SDS011;5865;48.776;9.280;2022-09-30T13:26:41;3.83;;;1.13;;
11618;SDS011;5865;48.776;9.280;2022-09-30T13:34:56;2.45;;;1.23;;
11618;SDS011;5865;48.776;9.280;2022-09-30T13:37:31;2.15;;;1.15;;
11618;SDS011;5865;48.776;9.280;2022-09-30T13:40:04;2.63;;;1.08;;
11618;SDS011;5865;48.776;9.280;2022-09-30T13:42:47;3.30;;;1.35;;
11618;SDS011;5865;48.776;9.280;2022-09-30T13:45:19;1.15;;;1.00;;
11618;SDS011;5865;48.776;9.280;2022-09-30T13:50:32;1.10;;;1.00;;
11618;SDS011;5865;48.776;9.280;2022-09-30T13:53:04;1.30;;;1.10;;
11618;SDS011;5865;48.776;9.280;2022-09-30T13:55:37;1.38;;;1.00;;
11618;SDS011;5865;48.776;9.280;2022-09-30T13:58:15;1.70;;;1.10;;
11618;SDS011;5865;48.776;9.280;2022-09-30T14:00:56;1.48;;;1.05;;
11618;SDS011;5865;48.776;9.280;2022-09-30T14:06:26;1.85;;;1.00;;
11618;SDS011;5865;48.776;9.280;2022-09-30T14:09:14;1.60;;;1.30;;
11618;SDS011;5865;48.776;9.280;2022-09-30T14:12:02;1.75;;;1.10;;
11618;SDS011;5865;48.776;9.280;2022-09-30T14:17:45;1.40;;;1.00;;
11618;SDS011;5865;48.776;9.280;2022-09-30T14:20:25;1.30;;;0.90;;
11618;SDS011;5865;48.776;9.280;2022-09-30T14:23:11;1.50;;;1.10;;
11618;SDS011;5865;48.776;9.280;2022-09-30T14:25:40;1.42;;;1.00;;
11618;SDS011;5865;48.776;9.280;2022-09-30T14:28:14;2.22;;;1.20;;
11618;SDS011;5865;48.776;9.280;2022-09-30T14:30:48;2.58;;;1.08;;
11618;SDS011;5865;48.776;9.280;2022-09-30T14:33:29;2.47;;;1.10;;
11618;SDS011;5865;48.776;9.280;2022-09-30T14:35:59;1.45;;;1.05;;
11618;SDS011;5865;48.776;9.280;2022-09-30T14:38:27;2.70;;;0.90;;
11618;SDS011;5865;48.776;9.280;2022-09-30T14:40:57;1.42;;;0.93;;
11618;SDS011;5865;48.776;9.280;2022-09-30T14:43:30;2.22;;;0.90;;
11618;SDS011;5865;48.776;9.280;2022-09-30T14:46:03;0.88;;;0.88;;
11618;SDS011;5865;48.776;9.280;2022-09-30T14:48:33;1.50;;;0.90;;
11618;SDS011;5865;48.776;9.280;2022-09-30T14:51:07;1.10;;;0.90;;
11618;SDS011;5865;48.776;9.280;2022-09-30T14:53:38;1.13;;;0.85;;
11618;SDS011;5865;48.776;9.280;2022-09-30T14:56:14;1.73;;;0.80;;
11618;SDS011;5865;48.776;9.280;2022-09-30T14:58:46;2.45;;;1.40;;
11618;SDS011;5865;48.776;9.280;2022-09-30T15:01:18;3.03;;;1.73;;
11618;SDS011;5865;48.776;9.280;2022-09-30T15:03:48;1.30;;;1.20;;
11618;SDS011;5865;48.776;9.280;2022-09-30T15:06:20;1.83;;;1.40;;
11618;SDS011;5865;48.776;9.280;2022-09-30T15:08:49;2.72;;;1.80;;
11618;SDS011;5865;48.776;9.280;2022-09-30T15:11:25;2.47;;;1.30;;
11618;SDS011;5865;48.776;9.280;2022-09-30T15:13:56;2.53;;;1.60;;
11618;SDS011;5865;48.776;9.280;2022-09-30T15:16:29;2.88;;;1.60;;
11618;SDS011;5865;48.776;9.280;2022-09-30T15:18:57;1.83;;;1.65;;
11618;SDS011;5865;48.776;9.280;2022-09-30T15:21:25;3.97;;;1.48;;
11618;SDS011;5865;48.776;9.280;2022-09-30T15:23:56;4.13;;;1.60;;
11618;SDS011;5865;48.776;9.280;2022-09-30T15:26:25;2.67;;;1.63;;
11618;SDS011;5865;48.776;9.280;2022-09-30T15:28:52;2.10;;;1.70;;
11618;SDS011;5865;48.776;9.280;2022-09-30T15:31:21;2.75;;;1.58;;
11618;SDS011;5865;48.776;9.280;2022-09-30T15:34:05;2.83;;;1.73;;
11618;SDS011;5865;48.776;9.280;2022-09-30T15:36:38;1.80;;;1.60;;
11618;SDS011;5865;48.776;9.280;2022-09-30T15:39:11;3.00;;;1.63;;
11618;SDS011;5865;48.776;9.280;2022-09-30T15:41:45;2.78;;;1.50;;
11618;SDS011;5865;48.776;9.280;2022-09-30T15:44:14;2.13;;;1.50;;
11618;SDS011;5865;48.776;9.280;2022-09-30T15:46:58;2.70;;;1.45;;
11618;SDS011;5865;48.776;9.280;2022-09-30T15:49:30;3.42;;;1.73;;
11618;SDS011;5865;48.776;9.280;2022-09-30T15:52:19;2.60;;;1.63;;
11618;SDS011;5865;48.776;9.280;2022-09-30T15:55:01;2.00;;;1.50;;
11618;SDS011;5865;48.776;9.280;2022-09-30T15:57:44;1.42;;;1.30;;